Time;durP1;ratioP1;P1;durP2;ratioP2;P2;SDS_P1;SDS_P2;PMS_P1;PMS_P2;Temp;Humidity;BMP_temperature;BMP_pressure;BME280_temperature;BME280_humidity;BME280_pressure;Samples;Min_cycle;Max_cycle;Signal;HPM_P1;HPM_P2
2022/12/22 03:28:08;;;;;;;;;25.25;23.00;;;;;9.22;87.41;100221.97;5032217;28;10937;-67
2022/12/22 03:30:34;;;;;;;;;25.75;21.25;;;;;9.22;87.49;100217.41;5033077;28;10827;-65
2022/12/22 03:33:01;;;;;;;;;25.50;22.75;;;;;9.22;87.93;100220.09;5039573;28;10864;-64
2022/12/22 03:35:27;;;;;;;;;24.50;18.50;;;;;9.21;87.84;100215.75;5035951;28;10884;-64
2022/12/22 03:37:54;;;;;;;;;21.50;21.00;;;;;9.24;87.80;100206.50;5032219;28;10817;-63
2022/12/22 03:40:20;;;;;;;;;27.50;26.00;;;;;9.24;87.38;100206.50;5047551;28;11522;-63
2022/12/22 03:48:16;;;;;;;;;28.25;24.25;;;;;9.22;87.55;100190.56;5042924;28;10792;-63
2022/12/22 03:50:42;;;;;;;;;20.75;20.75;;;;;9.22;87.59;100195.09;5038645;28;10777;-64
2022/12/22 03:53:09;;;;;;;;;28.75;22.75;;;;;9.21;87.61;100199.66;5031551;28;10804;-65
2022/12/22 03:55:35;;;;;;;;;25.25;23.75;;;;;9.21;86.94;100190.78;5031297;28;10967;-65
2022/12/22 03:58:02;;;;;;;;;25.25;20.75;;;;;9.22;87.04;100197.78;5040574;28;10810;-64
2022/12/22 04:00:28;;;;;;;;;24.25;18.50;;;;;9.21;87.50;100196.97;5048114;28;11639;-66
2022/12/22 04:02:57;;;;;;;;;29.25;23.75;;;;;9.21;87.44;100199.66;5033865;28;11412;-66
2022/12/22 04:05:24;;;;;;;;;27.25;25.25;;;;;9.21;87.30;100199.66;5031154;28;10740;-66
2022/12/22 04:07:51;;;;;;;;;21.25;20.50;;;;;9.24;87.59;100210.00;5038720;28;10940;-66
2022/12/22 04:13:03;;;;;;;;;23.50;21.00;;;;;9.22;87.50;100208.53;5051079;28;10710;-66
2022/12/22 04:15:31;;;;;;;;;24.75;22.50;;;;;9.22;86.96;100198.63;5047303;28;10685;-66
2022/12/22 04:17:58;;;;;;;;;28.75;22.25;;;;;9.22;87.24;100203.97;5039167;28;10900;-64
2022/12/22 04:20:26;;;;;;;;;29.25;22.00;;;;;9.23;87.26;100194.91;5045205;28;10787;-66
2022/12/22 04:22:54;;;;;;;;;35.00;27.75;;;;;9.21;87.13;100209.56;5050591;28;10795;-66
2022/12/22 04:25:22;;;;;;;;;33.00;26.50;;;;;9.19;87.06;100215.13;5050905;28;11002;-66
2022/12/22 04:27:48;;;;;;;;;23.25;23.00;;;;;9.20;87.44;100210.59;5042144;28;10897;-66
2022/12/22 04:30:15;;;;;;;;;33.00;26.50;;;;;9.20;87.04;100216.81;5047451;28;10996;-66
2022/12/22 04:32:42;;;;;;;;;21.75;21.75;;;;;9.20;87.38;100224.84;5039203;28;10853;-66
2022/12/22 04:35:09;;;;;;;;;26.00;23.50;;;;;9.19;87.36;100217.81;5030612;28;10971;-65
2022/12/22 04:37:36;;;;;;;;;22.75;19.25;;;;;9.19;87.39;100217.81;5031209;28;10891;-66
2022/12/22 04:40:03;;;;;;;;;27.00;22.75;;;;;9.21;87.25;100225.69;5030866;28;10873;-64
2022/12/22 04:42:29;;;;;;;;;25.25;23.25;;;;;9.22;87.11;100232.69;5036664;28;10816;-66
2022/12/22 04:44:55;;;;;;;;;24.50;21.00;;;;;9.24;87.49;100226.13;5041405;28;10642;-66
2022/12/22 04:47:22;;;;;;;;;31.25;24.50;;;;;9.26;87.74;100228.59;5040071;28;11777;-66
2022/12/22 04:49:48;;;;;;;;;25.75;23.25;;;;;9.24;87.14;100236.84;5044394;28;11097;-65
2022/12/22 04:52:15;;;;;;;;;28.75;25.00;;;;;9.24;86.98;100233.34;5050391;28;10838;-65
2022/12/22 04:54:41;;;;;;;;;27.25;22.75;;;;;9.23;87.40;100226.28;5050181;28;10981;-66
2022/12/22 04:57:08;;;;;;;;;26.50;24.75;;;;;9.24;87.70;100233.34;5049855;28;10909;-66
2022/12/22 04:59:34;;;;;;;;;23.75;21.75;;;;;9.21;87.19;100236.41;5041656;28;11001;-66
2022/12/22 05:02:01;;;;;;;;;25.50;24.75;;;;;9.19;87.58;100235.78;5035028;28;10921;-64
2022/12/22 05:04:27;;;;;;;;;31.25;26.25;;;;;9.16;87.42;100237.03;5049990;28;11680;-64
2022/12/22 05:06:54;;;;;;;;;25.25;24.25;;;;;9.12;87.14;100236.59;5050564;28;11052;-66
2022/12/22 05:09:20;;;;;;;;;30.50;24.00;;;;;9.13;87.67;100232.03;5050333;28;11141;-66
2022/12/22 05:11:46;;;;;;;;;24.00;22.25;;;;;9.16;87.58;100231.66;5046336;28;11826;-66
2022/12/22 05:14:13;;;;;;;;;26.50;22.75;;;;;9.15;87.43;100229.97;5038472;28;10789;-64
2022/12/22 05:16:39;;;;;;;;;22.50;22.50;;;;;9.14;86.98;100231.84;5038531;28;11528;-66
2022/12/22 05:19:06;;;;;;;;;23.75;20.50;;;;;9.12;87.24;100228.53;5045740;28;10939;-65
2022/12/22 05:21:32;;;;;;;;;27.00;22.25;;;;;9.11;87.16;100234.91;5049834;28;11552;-66
2022/12/22 05:23:59;;;;;;;;;29.25;23.75;;;;;9.09;87.51;100233.47;5050064;28;11455;-65
2022/12/22 05:26:25;;;;;;;;;18.75;17.00;;;;;9.06;87.42;100232.00;5050098;28;10974;-64
2022/12/22 05:28:52;;;;;;;;;24.75;17.50;;;;;9.04;87.29;100235.94;5044373;28;10732;-66
2022/12/22 05:31:22;;;;;;;;;16.50;16.00;;;;;9.03;86.72;100243.13;5041859;28;10718;-66
2022/12/22 05:33:49;;;;;;;;;29.50;23.00;;;;;8.99;86.71;100243.72;5043443;28;10822;-64
2022/12/22 05:36:16;;;;;;;;;22.50;21.00;;;;;8.94;86.67;100238.97;5029626;28;10860;-64
2022/12/22 05:38:44;;;;;;;;;21.75;20.00;;;;;8.91;87.00;100245.56;5044901;28;10716;-64
2022/12/22 05:41:11;;;;;;;;;25.00;19.75;;;;;8.88;86.66;100251.34;5048940;28;10705;-63
2022/12/22 05:43:37;;;;;;;;;23.25;19.75;;;;;8.88;87.01;100255.88;5037471;28;10784;-64
2022/12/22 05:46:07;;;;;;;;;19.75;17.00;;;;;8.84;86.84;100252.75;5048518;28;11413;-64
2022/12/22 05:48:34;;;;;;;;;24.25;19.50;;;;;8.83;86.40;100260.97;5049623;28;10968;-64
2022/12/22 05:51:06;;;;;;;;;18.75;18.25;;;;;8.81;86.70;100271.94;5040263;28;11505;-64
2022/12/22 05:53:33;;;;;;;;;27.25;22.25;;;;;8.79;86.88;100260.56;5038659;28;10795;-64
2022/12/22 05:55:59;;;;;;;;;29.00;27.25;;;;;8.77;86.77;100264.47;5039478;28;10850;-64
2022/12/22 05:58:26;;;;;;;;;31.50;23.00;;;;;8.77;86.98;100261.78;5034720;28;11023;-64
2022/12/22 06:00:58;;;;;;;;;28.25;22.75;;;;;8.77;87.39;100265.28;5049590;28;10919;-64
2022/12/22 06:03:26;;;;;;;;;24.25;20.50;;;;;8.79;87.00;100270.44;5047515;28;10978;-64
2022/12/22 06:05:54;;;;;;;;;19.25;18.00;;;;;8.80;87.10;100272.13;5047449;28;10871;-65
2022/12/22 06:08:21;;;;;;;;;29.50;22.75;;;;;8.80;87.11;100272.13;5034421;28;10926;-63
2022/12/22 06:10:48;;;;;;;;;23.25;16.50;;;;;8.79;87.14;100279.38;5031103;28;10858;-62
2022/12/22 06:13:14;;;;;;;;;26.25;20.75;;;;;8.79;87.20;100292.78;5046420;28;10879;-63
2022/12/22 06:15:41;;;;;;;;;15.50;14.00;;;;;8.81;87.58;100273.78;5049493;28;10808;-64
2022/12/22 06:18:08;;;;;;;;;22.75;18.75;;;;;8.81;86.91;100271.09;5042176;28;10788;-65
2022/12/22 06:20:34;;;;;;;;;23.00;19.75;;;;;8.80;87.07;100272.97;5048763;28;10740;-67
2022/12/22 06:23:01;;;;;;;;;24.00;18.00;;;;;8.75;87.09;100294.19;5038042;28;10727;-67
2022/12/22 06:25:27;;;;;;;;;29.25;23.00;;;;;8.77;87.57;100292.13;5046309;28;10642;-66
2022/12/22 06:27:54;;;;;;;;;19.50;17.00;;;;;8.79;88.28;100292.78;5041099;28;10561;-66
2022/12/22 06:30:20;;;;;;;;;28.50;21.00;;;;;8.78;87.94;100299.16;5041291;28;10793;-66
2022/12/22 06:32:54;;;;;;;;;26.75;19.00;;;;;8.79;87.48;100311.56;5038607;28;10874;-63
2022/12/22 06:35:21;;;;;;;;;20.25;19.25;;;;;8.81;87.98;100317.56;5049355;28;10723;-67
2022/12/22 06:37:47;;;;;;;;;21.75;14.75;;;;;8.82;87.93;100313.84;5051759;28;10762;-66
2022/12/22 06:40:14;;;;;;;;;15.00;15.00;;;;;8.83;87.49;100307.47;5050903;28;10757;-67
2022/12/22 06:45:38;;;;;;;;;26.75;18.25;;;;;8.82;87.76;100313.00;5050714;28;10705;-66
2022/12/22 06:48:06;;;;;;;;;22.75;18.75;;;;;8.85;88.13;100315.31;5050326;28;10669;-63
2022/12/22 06:50:33;;;;;;;;;26.50;21.75;;;;;8.85;88.12;100316.13;5035443;28;10766;-64
2022/12/22 06:52:59;;;;;;;;;21.25;21.00;;;;;8.83;87.27;100323.56;5052321;28;10832;-64
2022/12/22 06:55:26;;;;;;;;;19.50;13.75;;;;;8.82;88.09;100332.63;5052376;28;10833;-62
2022/12/22 06:57:53;;;;;;;;;20.50;17.25;;;;;8.82;87.45;100331.78;5051845;28;10656;-64
2022/12/22 07:00:20;;;;;;;;;19.25;12.75;;;;;8.81;87.65;100340.88;5044844;28;11010;-65
2022/12/22 07:02:46;;;;;;;;;8.25;5.50;;;;;8.82;87.84;100337.16;5042960;28;10820;-63
2022/12/22 07:05:14;;;;;;;;;18.50;15.25;;;;;8.80;87.54;100334.69;5035843;28;10597;-64
2022/12/22 07:07:41;;;;;;;;;22.25;14.25;;;;;8.80;87.93;100333.84;5037675;28;10720;-62
2022/12/22 07:10:08;;;;;;;;;19.75;18.00;;;;;8.79;87.12;100340.22;5041273;28;10675;-64
2022/12/22 07:12:34;;;;;;;;;12.25;11.50;;;;;8.78;87.63;100343.94;5036777;28;11381;-64
2022/12/22 07:15:01;;;;;;;;;15.00;10.50;;;;;8.76;87.74;100346.84;5043115;28;10621;-64
2022/12/22 07:17:27;;;;;;;;;18.25;13.50;;;;;8.76;87.12;100348.69;5040422;28;10606;-63
2022/12/22 07:19:54;;;;;;;;;23.25;15.00;;;;;8.75;87.23;100347.88;5046580;28;10727;-64
2022/12/22 07:22:20;;;;;;;;;16.25;14.50;;;;;8.73;87.32;100355.25;5036014;28;10658;-65
2022/12/22 07:24:55;;;;;;;;;11.75;11.50;;;;;8.72;87.00;100353.63;5044008;28;10588;-64
2022/12/22 07:27:21;;;;;;;;;24.50;17.00;;;;;8.69;86.85;100362.03;5049188;28;10805;-64
2022/12/22 07:29:47;;;;;;;;;19.25;18.75;;;;;8.65;86.83;100377.69;5047597;28;10546;-66
2022/12/22 07:32:14;;;;;;;;;11.75;10.25;;;;;8.63;86.62;100369.03;5040891;28;10671;-63
2022/12/22 07:34:40;;;;;;;;;13.25;13.25;;;;;8.58;86.63;100374.13;5051774;28;10371;-64
2022/12/22 07:37:07;;;;;;;;;17.00;11.00;;;;;8.57;86.98;100377.00;5050438;28;10758;-66
2022/12/22 07:39:33;;;;;;;;;16.00;9.00;;;;;8.59;86.61;100377.66;5051829;28;10458;-65
2022/12/22 07:44:45;;;;;;;;;10.50;8.00;;;;;8.56;86.87;100386.91;5039287;28;10539;-66
2022/12/22 07:47:11;;;;;;;;;10.75;9.50;;;;;8.55;86.92;100392.47;5043058;28;10771;-65
2022/12/22 07:52:23;;;;;;;;;12.75;8.25;;;;;8.46;86.22;100398.97;5038471;28;10529;-67
2022/12/22 07:54:49;;;;;;;;;7.25;7.25;;;;;8.42;87.04;100410.06;5050488;28;10720;-65
2022/12/22 07:57:16;;;;;;;;;9.50;9.50;;;;;8.45;87.09;100416.09;5038191;28;10548;-65
2022/12/22 07:59:42;;;;;;;;;11.50;9.50;;;;;8.45;86.87;100406.19;5046940;28;11472;-66
2022/12/22 08:02:10;;;;;;;;;10.50;10.00;;;;;8.44;86.70;100398.34;5042930;28;10733;-68
2022/12/22 08:04:36;;;;;;;;;6.50;6.25;;;;;8.44;86.57;100409.06;5051257;28;10850;-66
2022/12/22 08:07:03;;;;;;;;;11.50;9.50;;;;;8.43;86.17;100392.16;5050432;28;10577;-66
2022/12/22 08:09:29;;;;;;;;;9.75;9.75;;;;;8.41;86.16;100403.06;5044632;28;10623;-66
2022/12/22 08:11:55;;;;;;;;;8.00;6.00;;;;;8.40;86.44;100409.44;5043260;28;10836;-64
2022/12/22 08:14:22;;;;;;;;;9.00;8.25;;;;;8.38;86.72;100411.47;5048860;28;10679;-63
2022/12/22 08:16:48;;;;;;;;;9.25;8.50;;;;;8.36;86.48;100410.81;5046819;28;10659;-64
2022/12/22 08:19:15;;;;;;;;;6.50;6.00;;;;;8.35;86.47;100414.53;5051521;28;10628;-64
2022/12/22 08:21:41;;;;;;;;;8.50;7.00;;;;;8.35;86.70;100429.78;5034351;28;10513;-64
2022/12/22 08:24:17;;;;;;;;;4.25;4.25;;;;;8.34;86.20;100428.09;5051155;28;10626;-61
2022/12/22 08:26:47;;;;;;;;;9.25;9.25;;;;;8.33;86.55;100423.78;5043678;28;10366;-62
2022/12/22 08:29:22;;;;;;;;;10.25;8.25;;;;;8.30;86.37;100421.47;5043981;28;10736;-63
2022/12/22 08:31:49;;;;;;;;;9.50;8.75;;;;;8.26;86.42;100434.41;5047422;28;10664;-64
2022/12/22 08:34:16;;;;;;;;;6.75;6.75;;;;;8.26;86.13;100439.78;5050317;28;10706;-63
2022/12/22 08:36:47;;;;;;;;;9.50;8.00;;;;;8.24;85.77;100441.84;5050018;28;10624;-62
2022/12/22 08:39:15;;;;;;;;;9.00;5.00;;;;;8.22;85.70;100443.03;5050018;28;10726;-64
2022/12/22 08:41:50;;;;;;;;;7.25;7.00;;;;;8.20;85.47;100453.94;5051401;28;10748;-65
2022/12/22 08:44:25;;;;;;;;;7.50;5.75;;;;;8.19;86.02;100465.69;5051228;28;10709;-64
2022/12/22 08:46:54;;;;;;;;;6.25;6.25;;;;;8.18;86.03;100462.19;5052196;28;10590;-64
2022/12/22 08:49:21;;;;;;;;;7.25;7.25;;;;;8.15;85.73;100453.69;5039975;28;10652;-64
2022/12/22 08:51:47;;;;;;;;;8.75;6.00;;;;;8.13;85.61;100447.69;5039778;28;11499;-64
2022/12/22 08:54:15;;;;;;;;;7.50;5.25;;;;;8.12;86.22;100460.25;5052280;28;10503;-64
2022/12/22 08:56:42;;;;;;;;;11.25;10.00;;;;;8.11;85.64;100468.50;5048325;28;10779;-63
2022/12/22 08:59:09;;;;;;;;;11.00;9.50;;;;;8.14;86.05;100465.41;5047737;28;10781;-64
2022/12/22 09:01:38;;;;;;;;;9.75;8.75;;;;;8.14;86.19;100460.91;5043211;28;10724;-66
2022/12/22 09:04:08;;;;;;;;;13.00;9.50;;;;;8.16;86.25;100466.06;5041847;28;10764;-65
2022/12/22 09:06:34;;;;;;;;;8.50;8.25;;;;;8.17;86.15;100471.22;5040615;28;10704;-65
2022/12/22 09:09:08;;;;;;;;;6.00;6.00;;;;;8.21;86.14;100474.38;5049031;28;10793;-65
2022/12/22 09:11:35;;;;;;;;;14.00;8.25;;;;;8.20;85.44;100479.94;5048534;28;10618;-64
2022/12/22 09:14:02;;;;;;;;;9.75;7.25;;;;;8.20;85.92;100483.44;5045941;28;11726;-69
2022/12/22 09:16:31;;;;;;;;;12.25;11.00;;;;;8.23;85.54;100485.75;5045878;28;10431;-63
2022/12/22 09:18:58;;;;;;;;;9.00;6.50;;;;;8.31;86.15;100482.97;5041854;28;10749;-64
2022/12/22 09:21:25;;;;;;;;;7.25;7.25;;;;;8.39;86.40;100490.09;5042416;28;10561;-64
2022/12/22 09:23:52;;;;;;;;;8.50;7.00;;;;;8.39;85.96;100490.94;5049702;28;10564;-62
2022/12/22 09:26:21;;;;;;;;;8.25;8.25;;;;;8.44;86.00;100489.53;5048690;28;10678;-64
2022/12/22 09:28:48;;;;;;;;;7.00;7.00;;;;;8.45;85.66;100485.81;5047423;28;10463;-63
2022/12/22 09:31:17;;;;;;;;;7.00;6.50;;;;;8.49;85.38;100497.84;5049438;28;10620;-62
2022/12/22 09:33:44;;;;;;;;;10.25;9.00;;;;;8.52;85.20;100497.47;5048815;28;10604;-65
2022/12/22 09:36:13;;;;;;;;;5.75;5.50;;;;;8.54;85.85;100498.94;5046033;28;10397;-65
2022/12/22 09:38:41;;;;;;;;;10.25;8.75;;;;;8.58;85.05;100499.38;5042482;28;10281;-65
2022/12/22 09:41:14;;;;;;;;;7.00;7.00;;;;;8.61;84.81;100496.31;5047709;28;10430;-65
2022/12/22 09:43:41;;;;;;;;;8.00;6.25;;;;;8.65;85.46;100494.94;5049027;28;10360;-64
2022/12/22 09:46:26;;;;;;;;;8.25;8.25;;;;;8.68;85.06;100505.28;5049776;28;10500;-65
2022/12/22 09:48:53;;;;;;;;;7.50;6.25;;;;;8.63;85.19;100513.91;5048863;28;10447;-64
2022/12/22 09:51:22;;;;;;;;;8.00;8.00;;;;;8.64;84.96;100515.56;5046086;28;10488;-65
2022/12/22 09:53:57;;;;;;;;;9.00;7.25;;;;;8.74;85.28;100522.47;5048302;28;10466;-64
2022/12/22 09:56:26;;;;;;;;;6.00;5.00;;;;;8.79;85.12;100522.72;5040655;28;10376;-65
2022/12/22 09:58:53;;;;;;;;;4.00;2.25;;;;;8.86;84.95;100520.94;5038692;28;10412;-64
2022/12/22 10:01:31;;;;;;;;;11.50;8.00;;;;;8.86;84.67;100523.63;5042647;28;10188;-65
2022/12/22 10:04:26;;;;;;;;;10.75;8.75;;;;;8.83;84.56;100511.44;5051347;28;10452;-65
2022/12/22 10:07:05;;;;;;;;;6.00;6.00;;;;;8.90;85.03;100522.22;5037937;28;10558;-63
2022/12/22 10:09:35;;;;;;;;;6.00;6.00;;;;;8.94;84.19;100523.50;5037816;28;10353;-64
2022/12/22 10:12:19;;;;;;;;;6.75;6.75;;;;;8.98;84.40;100516.72;5047466;28;10255;-65
2022/12/22 10:14:48;;;;;;;;;6.50;5.25;;;;;9.01;84.06;100526.25;5051380;28;11217;-65
2022/12/22 10:17:28;;;;;;;;;7.25;5.00;;;;;9.05;84.44;100535.59;5050227;28;10221;-64
2022/12/22 10:20:18;;;;;;;;;8.50;5.75;;;;;9.04;84.09;100534.78;5037223;28;10310;-65
2022/12/22 10:22:47;;;;;;;;;6.75;5.25;;;;;9.03;83.78;100532.25;5039908;28;10324;-64
2022/12/22 10:25:39;;;;;;;;;4.25;4.25;;;;;9.05;84.05;100536.44;5047454;28;10237;-64
2022/12/22 10:28:30;;;;;;;;;5.50;5.50;;;;;9.07;84.11;100537.03;5039462;28;10223;-64
2022/12/22 10:31:11;;;;;;;;;8.25;6.25;;;;;9.09;83.74;100545.75;5048762;28;10153;-64
2022/12/22 10:33:39;;;;;;;;;7.75;7.75;;;;;9.08;83.60;100546.78;5044403;28;10331;-65
2022/12/22 10:36:15;;;;;;;;;7.25;7.25;;;;;9.11;84.27;100549.06;5042249;28;10266;-65
2022/12/22 10:39:01;;;;;;;;;6.50;6.50;;;;;9.12;84.00;100544.56;5050199;28;10304;-65
2022/12/22 10:41:34;;;;;;;;;6.00;6.00;;;;;9.14;84.07;100543.31;5049720;28;10307;-65
2022/12/22 10:44:23;;;;;;;;;7.25;6.25;;;;;9.12;84.04;100548.06;5042768;28;10220;-65
2022/12/22 10:46:58;;;;;;;;;6.50;5.00;;;;;9.13;83.88;100556.94;5040422;28;10767;-66
2022/12/22 10:49:38;;;;;;;;;7.75;7.50;;;;;9.14;84.26;100554.06;5042306;28;10229;-66
2022/12/22 10:52:14;;;;;;;;;6.50;6.50;;;;;9.16;84.01;100553.88;5048631;28;10238;-66
2022/12/22 10:54:43;;;;;;;;;6.50;6.00;;;;;9.16;83.75;100548.53;5047572;28;10247;-65
2022/12/22 10:57:12;;;;;;;;;4.50;4.50;;;;;9.18;83.45;100551.81;5035900;28;10323;-65
2022/12/22 10:59:49;;;;;;;;;5.25;4.50;;;;;9.12;84.02;100553.44;5044822;28;10253;-65
2022/12/22 11:02:30;;;;;;;;;5.50;4.00;;;;;9.15;83.57;100541.47;5045433;28;10309;-66
2022/12/22 11:05:07;;;;;;;;;7.75;5.00;;;;;9.21;84.13;100548.75;5038126;28;10231;-66
2022/12/22 11:07:44;;;;;;;;;7.50;7.50;;;;;9.24;83.92;100544.88;5047451;28;10175;-65
2022/12/22 11:10:13;;;;;;;;;5.50;4.00;;;;;9.26;83.57;100554.38;5032243;28;11132;-65
2022/12/22 11:13:08;;;;;;;;;5.50;5.50;;;;;9.28;83.75;100548.84;5035372;28;11128;-66
2022/12/22 11:15:50;;;;;;;;;4.75;3.75;;;;;9.30;83.57;100557.53;5037462;28;10186;-64
2022/12/22 11:19:01;;;;;;;;;6.50;5.50;;;;;9.21;83.74;100547.94;5046107;28;10255;-65
2022/12/22 11:21:46;;;;;;;;;10.50;5.00;;;;;9.23;83.71;100552.06;5050313;28;10183;-66
2022/12/22 11:24:35;;;;;;;;;5.00;4.00;;;;;9.28;83.93;100560.41;5048123;28;10464;-66
2022/12/22 11:27:20;;;;;;;;;3.25;3.25;;;;;9.35;84.20;100560.44;5036102;28;10385;-66
2022/12/22 11:30:04;;;;;;;;;2.00;1.75;;;;;9.40;83.60;100563.41;5035979;28;10297;-65
2022/12/22 11:32:56;;;;;;;;;4.50;3.50;;;;;9.41;83.72;100562.38;5040623;28;10367;-66
2022/12/22 11:35:41;;;;;;;;;3.50;3.50;;;;;9.42;83.67;100564.03;5045858;28;10304;-65
2022/12/22 11:38:45;;;;;;;;;5.00;5.00;;;;;9.40;83.46;100556.19;5047803;28;10377;-65
2022/12/22 11:41:30;;;;;;;;;6.00;3.25;;;;;9.46;83.75;100562.63;5040523;28;10188;-64
2022/12/22 11:44:12;;;;;;;;;5.00;5.00;;;;;9.52;83.44;100555.63;5049386;28;10106;-63
2022/12/22 11:46:55;;;;;;;;;4.25;4.00;;;;;9.51;83.09;100559.34;5045492;28;10137;-63
2022/12/22 11:49:42;;;;;;;;;1.50;1.50;;;;;9.52;82.91;100551.13;5040696;28;10275;-64
2022/12/22 11:52:42;;;;;;;;;2.75;2.75;;;;;9.54;83.30;100548.22;5048834;28;10215;-64
2022/12/22 11:55:44;;;;;;;;;5.00;5.00;;;;;9.59;83.33;100553.81;5047779;28;10069;-63
2022/12/22 11:58:31;;;;;;;;;4.25;4.25;;;;;9.62;83.17;100554.28;5036182;28;10258;-63
2022/12/22 12:01:05;;;;;;;;;4.50;4.25;;;;;9.63;82.64;100549.72;5049859;28;10296;-63
2022/12/22 12:04:17;;;;;;;;;5.75;4.00;;;;;9.56;82.47;100544.31;5041752;28;11042;-65
2022/12/22 12:07:03;;;;;;;;;4.25;4.00;;;;;9.50;82.69;100546.94;5038078;28;10193;-64
2022/12/22 12:09:36;;;;;;;;;5.25;5.25;;;;;9.47;82.86;100550.00;5049774;28;10207;-64
2022/12/22 12:12:41;;;;;;;;;4.00;4.00;;;;;9.44;82.73;100540.50;5050376;28;10259;-65
2022/12/22 12:15:30;;;;;;;;;9.50;6.75;;;;;9.33;82.80;100541.03;5037642;28;10327;-64
2022/12/22 12:18:25;;;;;;;;;8.00;8.00;;;;;9.35;82.55;100541.66;5039992;28;11047;-64
2022/12/22 12:21:05;;;;;;;;;7.75;7.75;;;;;9.29;83.09;100543.25;5037117;28;10456;-62
2022/12/22 12:23:54;;;;;;;;;5.75;5.75;;;;;9.30;82.74;100539.53;5039328;28;11151;-65
2022/12/22 12:26:26;;;;;;;;;6.75;5.50;;;;;9.27;82.94;100545.28;5030620;28;10111;-63
2022/12/22 12:29:17;;;;;;;;;7.25;7.25;;;;;9.26;82.85;100543.63;5037598;28;10373;-65
2022/12/22 12:32:01;;;;;;;;;8.25;8.25;;;;;9.28;83.63;100538.91;5039372;28;10468;-65
2022/12/22 12:34:32;;;;;;;;;12.00;12.00;;;;;9.25;83.33;100531.25;5046788;28;10122;-66
2022/12/22 12:37:14;;;;;;;;;12.50;11.50;;;;;9.27;83.05;100531.84;5034872;28;10625;-66
2022/12/22 12:40:15;;;;;;;;;16.00;16.00;;;;;9.21;82.88;100539.88;5039549;28;10554;-67
2022/12/22 12:42:45;;;;;;;;;14.50;11.75;;;;;9.15;82.92;100545.00;5033687;28;10611;-66
2022/12/22 12:45:34;;;;;;;;;15.75;15.75;;;;;9.15;83.43;100553.06;5038400;28;11199;-66
2022/12/22 12:48:19;;;;;;;;;15.75;15.25;;;;;9.03;82.78;100565.31;5044626;28;10550;-67
2022/12/22 12:50:46;;;;;;;;;11.50;11.50;;;;;9.08;82.57;100562.06;5037866;28;10573;-64
2022/12/22 12:53:13;;;;;;;;;19.75;17.50;;;;;9.06;82.44;100570.28;5035041;28;10531;-66
2022/12/22 12:55:40;;;;;;;;;20.50;17.75;;;;;8.90;82.39;100570.53;5031985;28;10586;-65
2022/12/22 12:58:11;;;;;;;;;18.50;16.50;;;;;8.79;82.45;100582.63;5035483;28;10708;-65
2022/12/22 13:00:37;;;;;;;;;22.50;17.50;;;;;8.56;82.87;100581.91;5034712;28;10703;-67
2022/12/22 13:03:23;;;;;;;;;15.75;10.75;;;;;8.50;82.91;100586.16;5032018;28;10557;-66
2022/12/22 13:06:30;;;;;;;;;19.50;13.50;;;;;8.49;83.29;100578.31;5038219;28;10373;-66
2022/12/22 13:09:03;;;;;;;;;14.25;12.50;;;;;8.48;83.81;100577.50;5046796;28;10549;-66
2022/12/22 13:11:49;;;;;;;;;16.00;12.00;;;;;8.38;83.33;100580.44;5048204;28;11267;-66
2022/12/22 13:14:54;;;;;;;;;10.50;10.25;;;;;8.32;83.35;100574.97;5038612;28;10614;-64
2022/12/22 13:17:49;;;;;;;;;16.00;12.25;;;;;8.31;83.53;100570.63;5038048;28;10684;-63
2022/12/22 13:20:23;;;;;;;;;11.50;11.00;;;;;8.23;83.69;100568.88;5040293;28;10709;-66
2022/12/22 13:22:52;;;;;;;;;15.00;12.50;;;;;8.18;83.18;100565.91;5043652;28;10675;-65
2022/12/22 13:25:19;;;;;;;;;15.50;15.50;;;;;8.11;83.64;100562.31;5038542;28;10723;-66
2022/12/22 13:27:48;;;;;;;;;13.50;9.25;;;;;8.12;83.90;100555.94;5039791;28;10850;-65
2022/12/22 13:30:17;;;;;;;;;13.00;10.00;;;;;8.18;83.85;100555.19;5032696;28;10668;-65
2022/12/22 13:32:48;;;;;;;;;21.00;13.25;;;;;8.20;83.69;100552.31;5034063;28;10522;-66
2022/12/22 13:35:18;;;;;;;;;19.75;12.00;;;;;8.20;83.69;100555.00;5046898;28;10630;-65
2022/12/22 13:38:04;;;;;;;;;14.50;14.25;;;;;8.17;83.29;100550.84;5044065;28;10740;-65
2022/12/22 13:40:43;;;;;;;;;8.50;8.50;;;;;8.24;83.60;100549.09;5035974;28;10850;-65
2022/12/22 13:43:13;;;;;;;;;12.50;12.50;;;;;8.25;83.08;100537.34;5038511;28;10596;-66
2022/12/22 13:45:44;;;;;;;;;16.25;16.25;;;;;8.30;83.19;100529.56;5053085;28;10622;-65
2022/12/22 13:48:39;;;;;;;;;14.00;9.75;;;;;8.33;83.83;100521.13;5053355;28;10713;-66
2022/12/22 13:51:18;;;;;;;;;9.00;9.00;;;;;8.45;84.05;100521.53;5046458;28;10587;-63
2022/12/22 13:53:49;;;;;;;;;14.50;13.50;;;;;8.49;83.66;100517.44;5045357;28;10478;-64
2022/12/22 13:56:40;;;;;;;;;13.25;11.00;;;;;8.46;83.09;100517.81;5047152;28;10589;-64
2022/12/22 13:59:20;;;;;;;;;16.00;14.75;;;;;8.42;82.96;100524.56;5043693;28;10541;-66
2022/12/22 14:01:54;;;;;;;;;17.00;12.25;;;;;8.44;82.75;100511.81;5053704;28;10627;-65
2022/12/22 14:04:21;;;;;;;;;18.50;11.50;;;;;8.44;83.24;100521.72;5053079;28;10779;-66
2022/12/22 14:06:48;;;;;;;;;24.00;21.75;;;;;8.48;83.45;100517.66;5049949;28;10682;-65
2022/12/22 14:09:20;;;;;;;;;20.50;17.75;;;;;8.49;83.11;100505.88;5045260;28;10815;-65
2022/12/22 14:11:59;;;;;;;;;20.00;14.25;;;;;8.52;82.84;100498.28;5039540;28;10811;-66
2022/12/22 14:14:47;;;;;;;;;18.50;10.50;;;;;8.56;83.34;100494.22;5045963;28;10740;-66
2022/12/22 14:17:26;;;;;;;;;25.25;21.25;;;;;8.55;83.00;100489.88;5051888;28;10849;-65
2022/12/22 14:19:55;;;;;;;;;23.00;21.25;;;;;8.54;82.96;100484.69;5033103;28;11185;-65
2022/12/22 14:22:26;;;;;;;;;23.50;21.00;;;;;8.53;82.70;100491.91;5048333;28;10974;-66
2022/12/22 14:24:58;;;;;;;;;23.00;20.25;;;;;8.58;83.08;100496.69;5047275;28;10938;-65
2022/12/22 14:27:38;;;;;;;;;30.00;22.75;;;;;8.60;82.53;100489.31;5046540;28;11019;-65
2022/12/22 14:30:14;;;;;;;;;27.75;25.00;;;;;8.58;83.24;100486.78;5053281;28;10876;-66
2022/12/22 14:32:44;;;;;;;;;25.00;22.50;;;;;8.55;82.62;100475.63;5051339;28;10924;-65
2022/12/22 14:35:19;;;;;;;;;24.00;22.75;;;;;8.55;83.09;100478.31;5046538;28;10978;-67
2022/12/22 14:37:54;;;;;;;;;27.00;24.25;;;;;8.57;82.85;100473.59;5045860;28;10931;-66
2022/12/22 14:40:31;;;;;;;;;30.50;26.50;;;;;8.70;84.28;100481.75;5051882;28;10970;-66
2022/12/22 14:42:59;;;;;;;;;31.50;26.25;;;;;8.69;82.90;100488.16;5045485;28;11148;-65
2022/12/22 14:45:26;;;;;;;;;15.50;12.25;;;;;8.62;82.90;100487.25;5034920;28;11125;-63
2022/12/22 14:47:54;;;;;;;;;25.75;22.75;;;;;8.58;82.52;100477.91;5047870;28;11052;-66
2022/12/22 14:50:26;;;;;;;;;30.00;22.50;;;;;8.58;83.09;100475.22;5044498;28;11058;-66
2022/12/22 14:52:58;;;;;;;;;28.00;22.75;;;;;8.56;82.91;100471.94;5048302;28;11663;-66
2022/12/22 14:55:32;;;;;;;;;25.75;22.00;;;;;8.54;82.67;100468.59;5052267;28;10949;-66
2022/12/22 14:58:07;;;;;;;;;27.00;25.25;;;;;8.49;82.77;100466.47;5052065;28;10799;-66
2022/12/22 15:00:48;;;;;;;;;30.50;28.00;;;;;8.41;83.28;100462.06;5052408;28;11036;-65
2022/12/22 15:03:23;;;;;;;;;36.50;26.25;;;;;8.44;82.96;100465.41;5052107;28;11252;-66
2022/12/22 15:05:51;;;;;;;;;27.00;23.25;;;;;8.45;83.10;100461.69;5048299;28;11155;-65
2022/12/22 15:08:37;;;;;;;;;24.50;22.25;;;;;8.49;83.35;100454.91;5041872;28;11009;-66
2022/12/22 15:11:14;;;;;;;;;32.00;24.50;;;;;8.50;83.19;100448.53;5040772;28;11730;-65
2022/12/22 15:13:43;;;;;;;;;22.50;17.75;;;;;8.49;83.41;100446.88;5046268;28;10995;-66
2022/12/22 15:16:18;;;;;;;;;27.25;25.25;;;;;8.50;83.21;100443.16;5050182;28;11564;-65
2022/12/22 15:18:46;;;;;;;;;28.25;26.25;;;;;8.47;83.64;100439.03;5046372;28;11709;-66
2022/12/22 15:21:14;;;;;;;;;31.25;26.50;;;;;8.46;83.32;100444.56;5041000;28;11097;-65
2022/12/22 15:23:41;;;;;;;;;31.25;26.25;;;;;8.43;83.25;100435.06;5050643;28;10908;-63
2022/12/22 15:26:08;;;;;;;;;29.75;28.75;;;;;8.33;83.67;100434.50;5043365;28;11138;-64
2022/12/22 15:28:35;;;;;;;;;25.75;23.25;;;;;8.34;83.56;100436.16;5051443;28;11242;-65
2022/12/22 15:31:05;;;;;;;;;32.25;27.00;;;;;8.36;84.05;100424.22;5050227;28;11781;-64
2022/12/22 15:33:32;;;;;;;;;37.25;31.50;;;;;8.34;83.92;100420.88;5047967;28;11702;-65